sensor_id;sensor_type;location;lat;lon;timestamp;temperature;humidity
12977;DHT22;6553;48.412;9.514;2022-12-08T00:01:21;17.60;60.30
12977;DHT22;6553;48.412;9.514;2022-12-08T00:03:49;17.60;60.30
12977;DHT22;6553;48.412;9.514;2022-12-08T00:06:28;17.60;60.30
12977;DHT22;6553;48.412;9.514;2022-12-08T00:09:38;17.60;60.40
12977;DHT22;6553;48.412;9.514;2022-12-08T00:12:13;17.60;60.30
12977;DHT22;6553;48.412;9.514;2022-12-08T00:14:46;17.60;60.20
12977;DHT22;6553;48.412;9.514;2022-12-08T00:17:13;17.60;60.20
12977;DHT22;6553;48.412;9.514;2022-12-08T00:19:41;17.60;60.20
12977;DHT22;6553;48.412;9.514;2022-12-08T00:22:09;17.60;60.20
12977;DHT22;6553;48.412;9.514;2022-12-08T00:24:37;17.60;60.30
12977;DHT22;6553;48.412;9.514;2022-12-08T00:27:04;17.60;60.30
12977;DHT22;6553;48.412;9.514;2022-12-08T00:29:34;17.60;60.30
12977;DHT22;6553;48.412;9.514;2022-12-08T00:31:59;17.60;60.30
12977;DHT22;6553;48.412;9.514;2022-12-08T00:34:25;17.60;60.30
12977;DHT22;6553;48.412;9.514;2022-12-08T00:36:51;17.60;60.30
12977;DHT22;6553;48.412;9.514;2022-12-08T00:39:17;17.60;60.30
12977;DHT22;6553;48.412;9.514;2022-12-08T00:41:43;17.60;60.30
12977;DHT22;6553;48.412;9.514;2022-12-08T00:44:28;17.60;60.30
12977;DHT22;6553;48.412;9.514;2022-12-08T00:46:54;17.60;60.30
12977;DHT22;6553;48.412;9.514;2022-12-08T00:49:20;17.60;60.30
12977;DHT22;6553;48.412;9.514;2022-12-08T00:51:46;17.60;60.20
12977;DHT22;6553;48.412;9.514;2022-12-08T00:54:12;17.60;60.20
12977;DHT22;6553;48.412;9.514;2022-12-08T00:56:38;17.60;60.20
12977;DHT22;6553;48.412;9.514;2022-12-08T00:59:05;17.60;60.20
12977;DHT22;6553;48.412;9.514;2022-12-08T01:01:33;17.60;60.10
12977;DHT22;6553;48.412;9.514;2022-12-08T01:04:04;17.60;60.10
12977;DHT22;6553;48.412;9.514;2022-12-08T01:06:31;17.60;60.20
12977;DHT22;6553;48.412;9.514;2022-12-08T01:09:01;17.60;60.20
12977;DHT22;6553;48.412;9.514;2022-12-08T01:11:31;17.60;60.20
12977;DHT22;6553;48.412;9.514;2022-12-08T01:13:56;17.50;60.00
12977;DHT22;6553;48.412;9.514;2022-12-08T01:16:25;17.60;60.20
12977;DHT22;6553;48.412;9.514;2022-12-08T01:18:54;17.60;60.20
12977;DHT22;6553;48.412;9.514;2022-12-08T01:21:21;17.60;60.30
12977;DHT22;6553;48.412;9.514;2022-12-08T01:23:47;17.60;60.20
12977;DHT22;6553;48.412;9.514;2022-12-08T01:26:15;17.60;60.20
12977;DHT22;6553;48.412;9.514;2022-12-08T01:28:42;17.60;60.20
12977;DHT22;6553;48.412;9.514;2022-12-08T01:31:14;17.60;60.00
12977;DHT22;6553;48.412;9.514;2022-12-08T01:33:42;17.60;60.10
12977;DHT22;6553;48.412;9.514;2022-12-08T01:36:19;17.60;60.00
12977;DHT22;6553;48.412;9.514;2022-12-08T01:38:48;17.60;60.10
12977;DHT22;6553;48.412;9.514;2022-12-08T01:41:19;17.60;60.10
12977;DHT22;6553;48.412;9.514;2022-12-08T01:46:42;17.60;60.10
12977;DHT22;6553;48.412;9.514;2022-12-08T01:49:19;17.50;60.00
12977;DHT22;6553;48.412;9.514;2022-12-08T01:52:39;17.60;60.10
12977;DHT22;6553;48.412;9.514;2022-12-08T01:54:51;17.50;60.00
12977;DHT22;6553;48.412;9.514;2022-12-08T01:57:24;17.50;59.90
12977;DHT22;6553;48.412;9.514;2022-12-08T02:00:03;17.60;60.00
12977;DHT22;6553;48.412;9.514;2022-12-08T02:02:37;17.50;59.90
12977;DHT22;6553;48.412;9.514;2022-12-08T02:05:11;17.60;60.00
12977;DHT22;6553;48.412;9.514;2022-12-08T02:07:37;17.50;60.00
12977;DHT22;6553;48.412;9.514;2022-12-08T02:10:04;17.60;60.00
12977;DHT22;6553;48.412;9.514;2022-12-08T02:12:30;17.50;59.90
12977;DHT22;6553;48.412;9.514;2022-12-08T02:14:56;17.50;59.90
12977;DHT22;6553;48.412;9.514;2022-12-08T02:23:36;17.50;59.80
12977;DHT22;6553;48.412;9.514;2022-12-08T02:35:38;17.50;59.80
12977;DHT22;6553;48.412;9.514;2022-12-08T02:41:46;17.50;59.80
12977;DHT22;6553;48.412;9.514;2022-12-08T02:44:29;17.50;59.80
12977;DHT22;6553;48.412;9.514;2022-12-08T02:47:12;17.50;59.70
12977;DHT22;6553;48.412;9.514;2022-12-08T02:49:41;17.50;59.80
12977;DHT22;6553;48.412;9.514;2022-12-08T03:00:10;17.50;59.70
12977;DHT22;6553;48.412;9.514;2022-12-08T03:08:37;17.50;59.70
12977;DHT22;6553;48.412;9.514;2022-12-08T03:11:17;17.50;59.80
12977;DHT22;6553;48.412;9.514;2022-12-08T03:13:56;17.50;59.70
12977;DHT22;6553;48.412;9.514;2022-12-08T03:16:26;17.50;59.70
12977;DHT22;6553;48.412;9.514;2022-12-08T03:21:32;17.40;59.60
12977;DHT22;6553;48.412;9.514;2022-12-08T03:24:01;17.50;59.60
12977;DHT22;6553;48.412;9.514;2022-12-08T03:26:39;17.50;59.60
12977;DHT22;6553;48.412;9.514;2022-12-08T03:29:10;17.50;59.50
12977;DHT22;6553;48.412;9.514;2022-12-08T03:31:40;17.50;59.60
12977;DHT22;6553;48.412;9.514;2022-12-08T03:34:11;17.50;59.60
12977;DHT22;6553;48.412;9.514;2022-12-08T03:36:39;17.50;59.60
12977;DHT22;6553;48.412;9.514;2022-12-08T03:39:04;17.50;59.60
12977;DHT22;6553;48.412;9.514;2022-12-08T03:41:30;17.50;59.60
12977;DHT22;6553;48.412;9.514;2022-12-08T03:43:57;17.50;59.60
12977;DHT22;6553;48.412;9.514;2022-12-08T03:46:26;17.50;59.60
12977;DHT22;6553;48.412;9.514;2022-12-08T03:48:53;17.50;59.60
12977;DHT22;6553;48.412;9.514;2022-12-08T03:51:19;17.50;59.60
12977;DHT22;6553;48.412;9.514;2022-12-08T03:53:46;17.50;59.50
12977;DHT22;6553;48.412;9.514;2022-12-08T03:56:36;17.50;59.50
12977;DHT22;6553;48.412;9.514;2022-12-08T03:59:04;17.50;59.40
12977;DHT22;6553;48.412;9.514;2022-12-08T04:01:31;17.50;59.40
12977;DHT22;6553;48.412;9.514;2022-12-08T04:03:57;17.50;59.50
12977;DHT22;6553;48.412;9.514;2022-12-08T04:06:23;17.50;59.50
12977;DHT22;6553;48.412;9.514;2022-12-08T04:08:50;17.50;59.50
12977;DHT22;6553;48.412;9.514;2022-12-08T04:11:17;17.40;59.30
12977;DHT22;6553;48.412;9.514;2022-12-08T04:13:43;17.50;59.40
12977;DHT22;6553;48.412;9.514;2022-12-08T04:16:21;17.50;59.40
12977;DHT22;6553;48.412;9.514;2022-12-08T04:18:49;17.50;59.40
12977;DHT22;6553;48.412;9.514;2022-12-08T04:21:16;17.50;59.40
12977;DHT22;6553;48.412;9.514;2022-12-08T04:23:42;17.40;59.40
12977;DHT22;6553;48.412;9.514;2022-12-08T04:26:09;17.40;59.30
12977;DHT22;6553;48.412;9.514;2022-12-08T04:28:35;17.50;59.40
12977;DHT22;6553;48.412;9.514;2022-12-08T04:31:01;17.50;59.30
12977;DHT22;6553;48.412;9.514;2022-12-08T04:33:27;17.50;59.30
12977;DHT22;6553;48.412;9.514;2022-12-08T04:35:53;17.50;59.30
12977;DHT22;6553;48.412;9.514;2022-12-08T04:38:19;17.40;59.20
12977;DHT22;6553;48.412;9.514;2022-12-08T04:40:45;17.50;59.30
12977;DHT22;6553;48.412;9.514;2022-12-08T04:43:11;17.50;59.30
12977;DHT22;6553;48.412;9.514;2022-12-08T04:45:41;17.50;59.20
12977;DHT22;6553;48.412;9.514;2022-12-08T04:48:07;17.40;59.20
12977;DHT22;6553;48.412;9.514;2022-12-08T04:50:33;17.40;59.20
12977;DHT22;6553;48.412;9.514;2022-12-08T04:52:59;17.40;59.10
12977;DHT22;6553;48.412;9.514;2022-12-08T04:55:25;17.40;59.10
12977;DHT22;6553;48.412;9.514;2022-12-08T04:57:50;17.40;59.20
12977;DHT22;6553;48.412;9.514;2022-12-08T05:00:16;17.40;59.20
12977;DHT22;6553;48.412;9.514;2022-12-08T05:02:42;17.40;59.10
12977;DHT22;6553;48.412;9.514;2022-12-08T05:05:08;17.40;59.20
12977;DHT22;6553;48.412;9.514;2022-12-08T05:07:35;17.40;59.10
12977;DHT22;6553;48.412;9.514;2022-12-08T05:10:00;17.40;59.20
12977;DHT22;6553;48.412;9.514;2022-12-08T05:12:26;17.40;59.10
12977;DHT22;6553;48.412;9.514;2022-12-08T05:14:52;17.40;59.10
12977;DHT22;6553;48.412;9.514;2022-12-08T05:17:18;17.40;59.00
12977;DHT22;6553;48.412;9.514;2022-12-08T05:19:43;17.40;59.00
12977;DHT22;6553;48.412;9.514;2022-12-08T05:22:09;17.40;59.10
12977;DHT22;6553;48.412;9.514;2022-12-08T05:24:35;17.40;59.00
12977;DHT22;6553;48.412;9.514;2022-12-08T05:27:01;17.40;59.00
12977;DHT22;6553;48.412;9.514;2022-12-08T05:29:27;17.40;59.00
12977;DHT22;6553;48.412;9.514;2022-12-08T05:31:53;17.40;59.00
12977;DHT22;6553;48.412;9.514;2022-12-08T05:34:18;17.40;58.90
12977;DHT22;6553;48.412;9.514;2022-12-08T05:36:44;17.40;58.90
12977;DHT22;6553;48.412;9.514;2022-12-08T05:39:11;17.40;59.50
12977;DHT22;6553;48.412;9.514;2022-12-08T05:41:38;17.40;58.90
12977;DHT22;6553;48.412;9.514;2022-12-08T05:44:05;17.40;58.90
12977;DHT22;6553;48.412;9.514;2022-12-08T05:46:31;17.40;58.70
12977;DHT22;6553;48.412;9.514;2022-12-08T05:48:58;17.30;58.60
12977;DHT22;6553;48.412;9.514;2022-12-08T05:51:24;17.40;58.90
12977;DHT22;6553;48.412;9.514;2022-12-08T05:53:51;17.40;58.80
12977;DHT22;6553;48.412;9.514;2022-12-08T05:56:18;17.40;58.80
12977;DHT22;6553;48.412;9.514;2022-12-08T05:58:45;17.40;58.80
12977;DHT22;6553;48.412;9.514;2022-12-08T06:01:29;17.40;58.80
12977;DHT22;6553;48.412;9.514;2022-12-08T06:03:57;17.40;58.80
12977;DHT22;6553;48.412;9.514;2022-12-08T06:06:24;17.40;59.00
12977;DHT22;6553;48.412;9.514;2022-12-08T06:08:51;17.40;58.80
12977;DHT22;6553;48.412;9.514;2022-12-08T06:11:25;17.40;58.60
12977;DHT22;6553;48.412;9.514;2022-12-08T06:13:53;17.40;58.70
12977;DHT22;6553;48.412;9.514;2022-12-08T06:16:21;17.40;58.60
12977;DHT22;6553;48.412;9.514;2022-12-08T06:18:48;17.40;58.70
12977;DHT22;6553;48.412;9.514;2022-12-08T06:21:15;17.40;58.60
12977;DHT22;6553;48.412;9.514;2022-12-08T06:23:42;17.40;58.60
12977;DHT22;6553;48.412;9.514;2022-12-08T06:26:10;17.40;58.60
12977;DHT22;6553;48.412;9.514;2022-12-08T06:28:39;17.40;58.50
12977;DHT22;6553;48.412;9.514;2022-12-08T06:33:36;17.40;58.60
12977;DHT22;6553;48.412;9.514;2022-12-08T06:36:03;17.40;58.50
12977;DHT22;6553;48.412;9.514;2022-12-08T06:38:30;17.40;58.50
12977;DHT22;6553;48.412;9.514;2022-12-08T06:40:57;17.30;58.40
12977;DHT22;6553;48.412;9.514;2022-12-08T06:43:23;17.30;58.60
12977;DHT22;6553;48.412;9.514;2022-12-08T06:45:50;17.30;58.40
12977;DHT22;6553;48.412;9.514;2022-12-08T06:48:16;17.40;58.50
12977;DHT22;6553;48.412;9.514;2022-12-08T06:50:42;17.30;58.40
12977;DHT22;6553;48.412;9.514;2022-12-08T06:53:11;17.40;58.50
12977;DHT22;6553;48.412;9.514;2022-12-08T06:55:45;17.30;58.40
12977;DHT22;6553;48.412;9.514;2022-12-08T06:58:13;17.30;58.50
12977;DHT22;6553;48.412;9.514;2022-12-08T07:00:40;17.30;58.40
12977;DHT22;6553;48.412;9.514;2022-12-08T07:03:07;17.30;58.40
12977;DHT22;6553;48.412;9.514;2022-12-08T07:05:35;17.30;58.50
12977;DHT22;6553;48.412;9.514;2022-12-08T07:08:01;17.30;58.40
12977;DHT22;6553;48.412;9.514;2022-12-08T07:10:27;17.30;58.40
12977;DHT22;6553;48.412;9.514;2022-12-08T07:12:53;17.30;58.40
12977;DHT22;6553;48.412;9.514;2022-12-08T07:15:18;17.30;58.40
12977;DHT22;6553;48.412;9.514;2022-12-08T07:17:46;17.30;58.40
12977;DHT22;6553;48.412;9.514;2022-12-08T07:20:12;17.30;58.40
12977;DHT22;6553;48.412;9.514;2022-12-08T07:22:38;17.30;58.40
12977;DHT22;6553;48.412;9.514;2022-12-08T07:25:05;17.30;58.40
12977;DHT22;6553;48.412;9.514;2022-12-08T07:27:31;17.30;58.40
12977;DHT22;6553;48.412;9.514;2022-12-08T07:29:56;17.30;58.40
12977;DHT22;6553;48.412;9.514;2022-12-08T07:32:23;17.30;58.40
12977;DHT22;6553;48.412;9.514;2022-12-08T07:34:48;17.30;58.40
12977;DHT22;6553;48.412;9.514;2022-12-08T07:37:14;17.30;58.40
12977;DHT22;6553;48.412;9.514;2022-12-08T07:39:40;17.30;58.40
12977;DHT22;6553;48.412;9.514;2022-12-08T07:42:06;17.30;58.40
12977;DHT22;6553;48.412;9.514;2022-12-08T07:44:31;17.30;58.40
12977;DHT22;6553;48.412;9.514;2022-12-08T07:46:57;17.30;58.50
12977;DHT22;6553;48.412;9.514;2022-12-08T07:49:23;17.30;58.40
12977;DHT22;6553;48.412;9.514;2022-12-08T07:51:48;17.30;58.30
12977;DHT22;6553;48.412;9.514;2022-12-08T07:54:14;17.30;58.30
12977;DHT22;6553;48.412;9.514;2022-12-08T07:56:40;17.30;58.10
12977;DHT22;6553;48.412;9.514;2022-12-08T07:59:06;17.30;58.20
12977;DHT22;6553;48.412;9.514;2022-12-08T08:01:32;17.30;58.20
12977;DHT22;6553;48.412;9.514;2022-12-08T08:04:01;17.30;58.20
12977;DHT22;6553;48.412;9.514;2022-12-08T08:06:29;17.30;58.10
12977;DHT22;6553;48.412;9.514;2022-12-08T08:08:56;17.30;58.10
12977;DHT22;6553;48.412;9.514;2022-12-08T08:11:22;17.30;58.10
12977;DHT22;6553;48.412;9.514;2022-12-08T08:13:51;17.30;58.10
12977;DHT22;6553;48.412;9.514;2022-12-08T08:16:18;17.30;58.20
12977;DHT22;6553;48.412;9.514;2022-12-08T08:18:47;17.30;58.20
12977;DHT22;6553;48.412;9.514;2022-12-08T08:21:15;17.30;58.20
12977;DHT22;6553;48.412;9.514;2022-12-08T08:23:42;17.30;58.10
12977;DHT22;6553;48.412;9.514;2022-12-08T08:26:08;17.30;58.20
12977;DHT22;6553;48.412;9.514;2022-12-08T08:28:34;17.30;58.10
12977;DHT22;6553;48.412;9.514;2022-12-08T08:31:01;17.30;58.10
12977;DHT22;6553;48.412;9.514;2022-12-08T08:33:27;17.30;58.10
12977;DHT22;6553;48.412;9.514;2022-12-08T08:35:55;17.30;58.10
12977;DHT22;6553;48.412;9.514;2022-12-08T08:38:21;17.30;58.10
12977;DHT22;6553;48.412;9.514;2022-12-08T08:40:47;17.30;58.20
12977;DHT22;6553;48.412;9.514;2022-12-08T08:43:13;17.30;58.10
12977;DHT22;6553;48.412;9.514;2022-12-08T08:45:59;17.30;58.00
12977;DHT22;6553;48.412;9.514;2022-12-08T08:48:27;17.30;58.00
12977;DHT22;6553;48.412;9.514;2022-12-08T08:50:54;17.30;58.10
12977;DHT22;6553;48.412;9.514;2022-12-08T08:53:21;17.30;58.00
12977;DHT22;6553;48.412;9.514;2022-12-08T08:55:47;17.30;58.00
12977;DHT22;6553;48.412;9.514;2022-12-08T08:58:13;17.30;58.10
12977;DHT22;6553;48.412;9.514;2022-12-08T09:00:39;17.30;58.10
12977;DHT22;6553;48.412;9.514;2022-12-08T09:03:05;17.30;58.00
12977;DHT22;6553;48.412;9.514;2022-12-08T09:05:30;17.30;58.00
12977;DHT22;6553;48.412;9.514;2022-12-08T09:07:57;17.30;58.00
12977;DHT22;6553;48.412;9.514;2022-12-08T09:10:23;17.30;58.00
12977;DHT22;6553;48.412;9.514;2022-12-08T09:12:49;17.30;58.10
12977;DHT22;6553;48.412;9.514;2022-12-08T09:15:14;17.30;58.60
12977;DHT22;6553;48.412;9.514;2022-12-08T09:17:40;17.30;58.00
12977;DHT22;6553;48.412;9.514;2022-12-08T09:20:06;17.30;58.00
12977;DHT22;6553;48.412;9.514;2022-12-08T09:22:32;17.30;58.10
12977;DHT22;6553;48.412;9.514;2022-12-08T09:24:58;17.30;58.00
12977;DHT22;6553;48.412;9.514;2022-12-08T09:27:24;17.40;58.10
12977;DHT22;6553;48.412;9.514;2022-12-08T09:29:49;17.30;58.00
12977;DHT22;6553;48.412;9.514;2022-12-08T09:32:15;17.30;58.00
12977;DHT22;6553;48.412;9.514;2022-12-08T09:34:41;17.30;58.00
12977;DHT22;6553;48.412;9.514;2022-12-08T09:37:06;17.30;58.00
12977;DHT22;6553;48.412;9.514;2022-12-08T09:39:32;17.40;58.10
12977;DHT22;6553;48.412;9.514;2022-12-08T09:42:03;17.30;58.00
12977;DHT22;6553;48.412;9.514;2022-12-08T09:44:54;17.30;58.10
12977;DHT22;6553;48.412;9.514;2022-12-08T09:47:30;17.30;58.00
12977;DHT22;6553;48.412;9.514;2022-12-08T09:52:48;17.40;58.20
12977;DHT22;6553;48.412;9.514;2022-12-08T09:58:13;17.40;58.70
12977;DHT22;6553;48.412;9.514;2022-12-08T10:00:46;17.40;58.10
12977;DHT22;6553;48.412;9.514;2022-12-08T10:03:12;17.40;58.10
12977;DHT22;6553;48.412;9.514;2022-12-08T10:05:46;17.40;58.10
12977;DHT22;6553;48.412;9.514;2022-12-08T10:11:47;17.40;58.20
12977;DHT22;6553;48.412;9.514;2022-12-08T10:17:22;17.40;58.10
12977;DHT22;6553;48.412;9.514;2022-12-08T10:19:58;17.40;58.20
12977;DHT22;6553;48.412;9.514;2022-12-08T10:22:32;17.40;58.30
12977;DHT22;6553;48.412;9.514;2022-12-08T10:25:10;17.40;58.20
12977;DHT22;6553;48.412;9.514;2022-12-08T10:27:41;17.40;58.20
12977;DHT22;6553;48.412;9.514;2022-12-08T10:30:15;17.40;58.20
12977;DHT22;6553;48.412;9.514;2022-12-08T10:32:44;17.40;58.20
12977;DHT22;6553;48.412;9.514;2022-12-08T10:35:14;17.40;58.20
12977;DHT22;6553;48.412;9.514;2022-12-08T10:37:54;17.40;58.80
12977;DHT22;6553;48.412;9.514;2022-12-08T10:40:23;17.40;58.20
12977;DHT22;6553;48.412;9.514;2022-12-08T10:42:55;17.40;58.30
12977;DHT22;6553;48.412;9.514;2022-12-08T10:45:27;17.40;58.30
12977;DHT22;6553;48.412;9.514;2022-12-08T10:48:05;17.40;58.30
12977;DHT22;6553;48.412;9.514;2022-12-08T10:53:26;17.40;58.40
12977;DHT22;6553;48.412;9.514;2022-12-08T10:58:34;17.40;58.40
12977;DHT22;6553;48.412;9.514;2022-12-08T11:03:53;17.40;58.30
12977;DHT22;6553;48.412;9.514;2022-12-08T11:06:35;17.40;58.30
12977;DHT22;6553;48.412;9.514;2022-12-08T11:11:50;17.40;58.40
12977;DHT22;6553;48.412;9.514;2022-12-08T11:17:06;17.40;58.40
12977;DHT22;6553;48.412;9.514;2022-12-08T11:19:42;17.40;58.40
12977;DHT22;6553;48.412;9.514;2022-12-08T11:22:27;17.40;58.20
12977;DHT22;6553;48.412;9.514;2022-12-08T11:25:07;17.40;58.30
12977;DHT22;6553;48.412;9.514;2022-12-08T11:27:41;17.50;58.50
12977;DHT22;6553;48.412;9.514;2022-12-08T11:30:21;17.40;58.80
12977;DHT22;6553;48.412;9.514;2022-12-08T11:33:12;17.50;58.40
12977;DHT22;6553;48.412;9.514;2022-12-08T11:35:44;17.40;58.50
12977;DHT22;6553;48.412;9.514;2022-12-08T11:38:16;17.50;58.60
12977;DHT22;6553;48.412;9.514;2022-12-08T11:40:47;17.50;58.50
12977;DHT22;6553;48.412;9.514;2022-12-08T11:45:58;17.50;58.50
12977;DHT22;6553;48.412;9.514;2022-12-08T11:48:34;17.40;58.40
12977;DHT22;6553;48.412;9.514;2022-12-08T11:51:39;17.40;58.40
12977;DHT22;6553;48.412;9.514;2022-12-08T11:54:44;17.50;58.50
12977;DHT22;6553;48.412;9.514;2022-12-08T11:57:14;17.50;58.50
12977;DHT22;6553;48.412;9.514;2022-12-08T11:59:50;17.50;58.50
12977;DHT22;6553;48.412;9.514;2022-12-08T12:02:27;17.50;58.50
12977;DHT22;6553;48.412;9.514;2022-12-08T12:05:04;17.50;58.50
12977;DHT22;6553;48.412;9.514;2022-12-08T12:07:54;17.50;58.50
12977;DHT22;6553;48.412;9.514;2022-12-08T12:16:54;17.50;58.60
12977;DHT22;6553;48.412;9.514;2022-12-08T12:19:27;17.40;58.50
12977;DHT22;6553;48.412;9.514;2022-12-08T12:22:16;17.50;58.60
12977;DHT22;6553;48.412;9.514;2022-12-08T12:24:48;17.50;58.50
12977;DHT22;6553;48.412;9.514;2022-12-08T12:27:29;17.40;58.50
12977;DHT22;6553;48.412;9.514;2022-12-08T12:30:06;17.50;58.60
12977;DHT22;6553;48.412;9.514;2022-12-08T12:32:59;17.50;58.50
12977;DHT22;6553;48.412;9.514;2022-12-08T12:41:14;17.50;58.60
12977;DHT22;6553;48.412;9.514;2022-12-08T12:57:22;17.50;58.60
12977;DHT22;6553;48.412;9.514;2022-12-08T13:02:44;17.50;58.60
12977;DHT22;6553;48.412;9.514;2022-12-08T13:05:25;17.50;58.60
12977;DHT22;6553;48.412;9.514;2022-12-08T13:07:58;17.40;58.50
12977;DHT22;6553;48.412;9.514;2022-12-08T13:10:35;17.50;58.60
12977;DHT22;6553;48.412;9.514;2022-12-08T13:13:16;17.50;58.60
12977;DHT22;6553;48.412;9.514;2022-12-08T13:18:36;17.50;58.60
12977;DHT22;6553;48.412;9.514;2022-12-08T13:26:23;17.50;58.60
12977;DHT22;6553;48.412;9.514;2022-12-08T13:31:36;17.50;58.60
12977;DHT22;6553;48.412;9.514;2022-12-08T13:34:20;17.50;58.60
12977;DHT22;6553;48.412;9.514;2022-12-08T13:44:42;17.50;58.60
12977;DHT22;6553;48.412;9.514;2022-12-08T13:47:15;17.50;58.60
12977;DHT22;6553;48.412;9.514;2022-12-08T13:49:51;17.50;58.60
12977;DHT22;6553;48.412;9.514;2022-12-08T13:52:51;17.40;58.50
12977;DHT22;6553;48.412;9.514;2022-12-08T13:55:37;17.50;58.60
12977;DHT22;6553;48.412;9.514;2022-12-08T13:58:17;17.50;58.60
12977;DHT22;6553;48.412;9.514;2022-12-08T14:03:53;17.50;58.60
12977;DHT22;6553;48.412;9.514;2022-12-08T14:06:34;17.40;58.50
12977;DHT22;6553;48.412;9.514;2022-12-08T14:09:05;17.50;58.60
12977;DHT22;6553;48.412;9.514;2022-12-08T14:11:46;17.50;58.60
12977;DHT22;6553;48.412;9.514;2022-12-08T14:14:39;17.50;58.50
12977;DHT22;6553;48.412;9.514;2022-12-08T14:17:15;17.50;58.50
12977;DHT22;6553;48.412;9.514;2022-12-08T14:19:46;17.50;58.40
12977;DHT22;6553;48.412;9.514;2022-12-08T14:22:19;17.50;58.40
12977;DHT22;6553;48.412;9.514;2022-12-08T14:24:46;17.40;58.30
12977;DHT22;6553;48.412;9.514;2022-12-08T14:27:25;17.50;58.40
12977;DHT22;6553;48.412;9.514;2022-12-08T14:29:57;17.50;58.40
12977;DHT22;6553;48.412;9.514;2022-12-08T14:32:43;17.50;58.40
12977;DHT22;6553;48.412;9.514;2022-12-08T14:35:25;17.50;58.40
12977;DHT22;6553;48.412;9.514;2022-12-08T14:38:04;17.50;58.40
12977;DHT22;6553;48.412;9.514;2022-12-08T14:40:38;17.50;59.00
12977;DHT22;6553;48.412;9.514;2022-12-08T14:48:27;17.40;58.30
12977;DHT22;6553;48.412;9.514;2022-12-08T14:56:32;17.50;58.40
12977;DHT22;6553;48.412;9.514;2022-12-08T14:59:18;17.40;58.30
12977;DHT22;6553;48.412;9.514;2022-12-08T15:01:48;17.50;58.40
12977;DHT22;6553;48.412;9.514;2022-12-08T15:07:12;17.50;58.20
12977;DHT22;6553;48.412;9.514;2022-12-08T15:09:49;17.50;58.30
12977;DHT22;6553;48.412;9.514;2022-12-08T15:12:31;17.40;58.20
12977;DHT22;6553;48.412;9.514;2022-12-08T15:15:01;17.40;58.30
12977;DHT22;6553;48.412;9.514;2022-12-08T15:20:25;17.50;58.40
12977;DHT22;6553;48.412;9.514;2022-12-08T15:22:58;17.40;58.20
12977;DHT22;6553;48.412;9.514;2022-12-08T15:25:24;17.50;58.40
12977;DHT22;6553;48.412;9.514;2022-12-08T15:27:50;17.40;58.20
12977;DHT22;6553;48.412;9.514;2022-12-08T15:30:17;17.40;58.20
12977;DHT22;6553;48.412;9.514;2022-12-08T15:32:43;17.50;58.30
12977;DHT22;6553;48.412;9.514;2022-12-08T15:35:13;17.40;58.20
12977;DHT22;6553;48.412;9.514;2022-12-08T15:37:39;17.50;58.30
12977;DHT22;6553;48.412;9.514;2022-12-08T15:40:09;17.40;58.20
12977;DHT22;6553;48.412;9.514;2022-12-08T15:42:41;17.40;58.20
12977;DHT22;6553;48.412;9.514;2022-12-08T15:45:11;17.40;58.20
12977;DHT22;6553;48.412;9.514;2022-12-08T15:47:38;17.50;58.30
12977;DHT22;6553;48.412;9.514;2022-12-08T15:50:05;17.40;58.20
12977;DHT22;6553;48.412;9.514;2022-12-08T15:52:32;17.40;58.20
12977;DHT22;6553;48.412;9.514;2022-12-08T15:54:58;17.50;58.20
12977;DHT22;6553;48.412;9.514;2022-12-08T15:57:25;17.50;58.30
12977;DHT22;6553;48.412;9.514;2022-12-08T15:59:54;17.40;58.20
12977;DHT22;6553;48.412;9.514;2022-12-08T16:02:19;17.50;58.20
12977;DHT22;6553;48.412;9.514;2022-12-08T16:04:46;17.50;59.20
12977;DHT22;6553;48.412;9.514;2022-12-08T16:09:51;17.50;58.80
12977;DHT22;6553;48.412;9.514;2022-12-08T16:12:22;17.50;58.80
12977;DHT22;6553;48.412;9.514;2022-12-08T16:15:10;17.40;59.30
12977;DHT22;6553;48.412;9.514;2022-12-08T16:17:38;17.50;58.90
12977;DHT22;6553;48.412;9.514;2022-12-08T16:20:12;17.50;58.80
12977;DHT22;6553;48.412;9.514;2022-12-08T16:22:41;17.50;58.70
12977;DHT22;6553;48.412;9.514;2022-12-08T16:25:07;17.50;58.80
12977;DHT22;6553;48.412;9.514;2022-12-08T16:27:35;17.50;58.80
12977;DHT22;6553;48.412;9.514;2022-12-08T16:30:06;17.50;58.60
12977;DHT22;6553;48.412;9.514;2022-12-08T16:32:36;17.50;58.60
12977;DHT22;6553;48.412;9.514;2022-12-08T16:35:02;17.50;58.60
12977;DHT22;6553;48.412;9.514;2022-12-08T16:37:28;17.50;58.60
12977;DHT22;6553;48.412;9.514;2022-12-08T16:39:55;17.40;58.50
12977;DHT22;6553;48.412;9.514;2022-12-08T16:42:27;17.50;58.60
12977;DHT22;6553;48.412;9.514;2022-12-08T16:45:15;17.50;58.60
12977;DHT22;6553;48.412;9.514;2022-12-08T16:47:53;17.40;58.50
12977;DHT22;6553;48.412;9.514;2022-12-08T16:50:24;17.50;58.60
12977;DHT22;6553;48.412;9.514;2022-12-08T16:53:04;17.40;58.50
12977;DHT22;6553;48.412;9.514;2022-12-08T16:55:33;17.50;58.60
12977;DHT22;6553;48.412;9.514;2022-12-08T16:57:59;17.50;58.60
12977;DHT22;6553;48.412;9.514;2022-12-08T17:00:27;17.50;58.60
12977;DHT22;6553;48.412;9.514;2022-12-08T17:02:54;17.40;58.50
12977;DHT22;6553;48.412;9.514;2022-12-08T17:05:22;17.50;58.60
12977;DHT22;6553;48.412;9.514;2022-12-08T17:07:50;17.40;58.50
12977;DHT22;6553;48.412;9.514;2022-12-08T17:10:20;17.40;58.50
12977;DHT22;6553;48.412;9.514;2022-12-08T17:12:48;17.40;58.40
12977;DHT22;6553;48.412;9.514;2022-12-08T17:15:18;17.40;58.40
12977;DHT22;6553;48.412;9.514;2022-12-08T17:17:46;17.40;58.40
12977;DHT22;6553;48.412;9.514;2022-12-08T17:20:14;17.40;58.30
12977;DHT22;6553;48.412;9.514;2022-12-08T17:22:42;17.40;58.30
12977;DHT22;6553;48.412;9.514;2022-12-08T17:25:09;17.40;58.30
12977;DHT22;6553;48.412;9.514;2022-12-08T17:27:35;17.40;58.20
12977;DHT22;6553;48.412;9.514;2022-12-08T17:30:03;17.40;58.30
12977;DHT22;6553;48.412;9.514;2022-12-08T17:32:30;17.40;58.30
12977;DHT22;6553;48.412;9.514;2022-12-08T17:34:55;17.40;58.30
12977;DHT22;6553;48.412;9.514;2022-12-08T17:37:21;17.50;58.30
12977;DHT22;6553;48.412;9.514;2022-12-08T17:39:47;17.50;58.30
12977;DHT22;6553;48.412;9.514;2022-12-08T17:42:12;17.50;58.30
12977;DHT22;6553;48.412;9.514;2022-12-08T17:44:38;17.50;58.30
12977;DHT22;6553;48.412;9.514;2022-12-08T17:47:04;17.40;58.20
12977;DHT22;6553;48.412;9.514;2022-12-08T17:49:30;17.50;58.30
12977;DHT22;6553;48.412;9.514;2022-12-08T17:52:04;17.40;58.10
12977;DHT22;6553;48.412;9.514;2022-12-08T17:54:31;17.40;58.20
12977;DHT22;6553;48.412;9.514;2022-12-08T17:56:57;17.40;58.20
12977;DHT22;6553;48.412;9.514;2022-12-08T17:59:25;17.40;58.10
12977;DHT22;6553;48.412;9.514;2022-12-08T18:01:53;17.40;58.10
12977;DHT22;6553;48.412;9.514;2022-12-08T18:04:20;17.40;58.10
12977;DHT22;6553;48.412;9.514;2022-12-08T18:06:47;17.40;58.10
12977;DHT22;6553;48.412;9.514;2022-12-08T18:09:13;17.40;58.10
12977;DHT22;6553;48.412;9.514;2022-12-08T18:11:41;17.40;58.10
12977;DHT22;6553;48.412;9.514;2022-12-08T18:14:08;17.40;58.00
12977;DHT22;6553;48.412;9.514;2022-12-08T18:16:37;17.40;57.90
12977;DHT22;6553;48.412;9.514;2022-12-08T18:19:05;17.40;58.00
12977;DHT22;6553;48.412;9.514;2022-12-08T18:21:32;17.40;58.10
12977;DHT22;6553;48.412;9.514;2022-12-08T18:23:58;17.40;58.10